Time;durP1;ratioP1;P1;durP2;ratioP2;P2;SDS_P1;SDS_P2;PMS_P1;PMS_P2;Temp;Humidity;BMP_temperature;BMP_pressure;BME280_temperature;BME280_humidity;BME280_pressure;Samples;Min_cycle;Max_cycle;Signal;HPM_P1;HPM_P2
2021/01/25 00:01:46;;;;;;;;;;;1.10;99.90;;;;;;5031609;28;19940;-89
2021/01/25 00:04:13;;;;;;;;;;;1.00;99.90;;;;;;5031758;28;19984;-89
2021/01/25 00:06:39;;;;;;;;;;;1.00;99.90;;;;;;5030341;28;19913;-89
2021/01/25 00:09:04;;;;;;;;;;;1.00;99.90;;;;;;5037303;28;19917;-89
2021/01/25 00:11:30;;;;;;;;;;;1.00;99.90;;;;;;5029672;28;19902;-89
2021/01/25 00:13:55;;;;;;;;;;;1.00;99.90;;;;;;5036228;28;19925;-89
2021/01/25 00:16:21;;;;;;;;;;;1.00;99.90;;;;;;5027059;28;19931;-88
2021/01/25 00:18:46;;;;;;;;;;;0.90;99.90;;;;;;5022467;23;19965;-83
2021/01/25 00:21:12;;;;;;;;;;;0.90;99.90;;;;;;5001259;28;19913;-89
2021/01/25 00:23:37;;;;;;;;;;;0.90;99.90;;;;;;4994803;28;19921;-88
2021/01/25 00:26:03;;;;;;;;;;;0.90;99.90;;;;;;4992507;28;19913;-88
2021/01/25 00:28:28;;;;;;;;;;;0.90;99.90;;;;;;4994680;28;19914;-89
2021/01/25 00:30:54;;;;;;;;;;;0.90;99.90;;;;;;4998820;28;19913;-88
2021/01/25 00:33:21;;;;;;;;;;;0.90;99.90;;;;;;4998001;28;19910;-90
2021/01/25 00:35:46;;;;;;;;;;;0.90;99.90;;;;;;4997230;28;20000;-89
2021/01/25 00:38:12;;;;;;;;;;;0.80;99.90;;;;;;4997242;28;19910;-90
2021/01/25 00:40:38;;;;;;;;;;;0.90;99.90;;;;;;4998988;28;19980;-90
2021/01/25 00:43:04;;;;;;;;;;;0.90;99.90;;;;;;5010724;28;19914;-89
2021/01/25 00:45:29;;;;;;;;;;;0.90;99.90;;;;;;5011215;28;20017;-90
2021/01/25 00:47:55;;;;;;;;;;;0.90;99.90;;;;;;5006009;28;19918;-89
2021/01/25 00:50:23;;;;;;;;;;;0.80;99.90;;;;;;5005472;28;19910;-89
2021/01/25 00:52:49;;;;;;;;;;;0.90;99.90;;;;;;4987954;28;19937;-89
2021/01/25 00:55:14;;;;;;;;;;;0.90;99.90;;;;;;4988112;28;20342;-89
2021/01/25 00:57:43;;;;;;;;;;;1.00;99.90;;;;;;5007353;28;19909;-89
2021/01/25 01:00:09;;;;;;;;;;;1.00;99.90;;;;;;5006723;28;19916;-89
2021/01/25 01:02:35;;;;;;;;;;;1.00;99.90;;;;;;5011350;28;19908;-89
2021/01/25 01:05:01;;;;;;;;;;;1.00;99.90;;;;;;5013630;28;19917;-90
2021/01/25 01:07:27;;;;;;;;;;;1.00;99.90;;;;;;5012897;28;19968;-89
2021/01/25 01:09:52;;;;;;;;;;;1.10;99.90;;;;;;4997683;28;19902;-88
2021/01/25 01:12:18;;;;;;;;;;;1.00;99.90;;;;;;5013533;28;19913;-89
2021/01/25 01:14:43;;;;;;;;;;;1.00;99.90;;;;;;4996490;28;19973;-89
2021/01/25 01:17:09;;;;;;;;;;;1.00;99.90;;;;;;4995568;28;19912;-89
2021/01/25 01:19:34;;;;;;;;;;;0.90;99.90;;;;;;4994183;28;19928;-89
2021/01/25 01:22:00;;;;;;;;;;;0.90;99.90;;;;;;5011301;28;19925;-89
2021/01/25 01:24:25;;;;;;;;;;;0.90;99.90;;;;;;5015470;28;19912;-88
2021/01/25 01:26:51;;;;;;;;;;;0.80;99.90;;;;;;4999023;28;19898;-89
2021/01/25 01:29:16;;;;;;;;;;;0.80;99.90;;;;;;4995716;28;19953;-89
2021/01/25 01:31:42;;;;;;;;;;;0.70;99.90;;;;;;4992331;28;19910;-89
2021/01/25 01:34:07;;;;;;;;;;;0.70;99.90;;;;;;4990082;28;19966;-89
2021/01/25 01:36:33;;;;;;;;;;;0.70;99.90;;;;;;4989301;28;19920;-89
2021/01/25 01:38:58;;;;;;;;;;;0.70;99.90;;;;;;4993918;28;19949;-89
2021/01/25 01:41:24;;;;;;;;;;;0.70;99.90;;;;;;4995883;28;19901;-88
2021/01/25 01:43:49;;;;;;;;;;;0.80;99.90;;;;;;4998600;28;19910;-89
2021/01/25 01:46:15;;;;;;;;;;;0.90;99.90;;;;;;4998889;28;19991;-89
2021/01/25 01:48:40;;;;;;;;;;;0.90;99.90;;;;;;4998654;28;19905;-89
2021/01/25 01:51:06;;;;;;;;;;;0.90;99.90;;;;;;4998901;28;19902;-90
2021/01/25 01:53:33;;;;;;;;;;;0.90;99.90;;;;;;4998684;28;19902;-88
2021/01/25 01:55:59;;;;;;;;;;;0.90;99.90;;;;;;4998857;28;19920;-89
2021/01/25 01:58:27;;;;;;;;;;;0.90;99.90;;;;;;5015304;28;19902;-89
2021/01/25 02:00:52;;;;;;;;;;;0.90;99.90;;;;;;5014808;28;19921;-89
2021/01/25 02:03:19;;;;;;;;;;;0.90;99.90;;;;;;4996356;28;19933;-89
2021/01/25 02:05:44;;;;;;;;;;;0.90;99.90;;;;;;4993122;28;20009;-88
2021/01/25 02:08:10;;;;;;;;;;;0.90;99.90;;;;;;4992825;28;19909;-88
2021/01/25 02:10:36;;;;;;;;;;;0.80;99.90;;;;;;5013089;28;19926;-89
2021/01/25 02:13:02;;;;;;;;;;;0.80;99.90;;;;;;5003303;28;19915;-89
2021/01/25 02:15:29;;;;;;;;;;;0.90;99.90;;;;;;5008313;28;19921;-89
2021/01/25 02:17:54;;;;;;;;;;;0.90;99.90;;;;;;4988787;28;19934;-89
2021/01/25 02:20:23;;;;;;;;;;;0.90;99.90;;;;;;4965862;28;19933;-90
2021/01/25 02:22:59;;;;;;;;;;;0.90;99.90;;;;;;4950341;29;19961;-89
2021/01/25 02:25:24;;;;;;;;;;;0.80;99.90;;;;;;4949103;29;19914;-89
2021/01/25 02:27:50;;;;;;;;;;;0.80;99.90;;;;;;4953455;29;19924;-89
2021/01/25 02:30:16;;;;;;;;;;;0.80;99.90;;;;;;4954603;29;19911;-89
2021/01/25 02:32:42;;;;;;;;;;;0.80;99.90;;;;;;4957715;28;19962;-88
2021/01/25 02:35:09;;;;;;;;;;;0.80;99.90;;;;;;4962564;29;19910;-89
2021/01/25 02:37:35;;;;;;;;;;;0.80;99.90;;;;;;4966822;28;19998;-89
2021/01/25 02:40:02;;;;;;;;;;;0.80;99.90;;;;;;4955242;29;19910;-90
2021/01/25 02:42:29;;;;;;;;;;;0.70;99.90;;;;;;4974804;29;19914;-89
2021/01/25 02:44:54;;;;;;;;;;;0.70;99.90;;;;;;4954658;29;19921;-90
2021/01/25 02:47:21;;;;;;;;;;;0.70;99.90;;;;;;4970670;28;19918;-89
2021/01/25 02:49:46;;;;;;;;;;;0.70;99.90;;;;;;4963307;28;19918;-89
2021/01/25 02:52:14;;;;;;;;;;;0.70;99.90;;;;;;4994019;28;19998;-89
2021/01/25 02:54:39;;;;;;;;;;;0.60;99.90;;;;;;4988628;28;19917;-89
2021/01/25 02:57:07;;;;;;;;;;;0.60;99.90;;;;;;5018788;28;19898;-89
2021/01/25 02:59:32;;;;;;;;;;;0.60;99.90;;;;;;5004786;28;19937;-90
2021/01/25 03:01:58;;;;;;;;;;;0.60;99.90;;;;;;5000387;28;19910;-89
2021/01/25 03:04:24;;;;;;;;;;;0.60;99.90;;;;;;5017852;28;19906;-88
2021/01/25 03:06:50;;;;;;;;;;;0.60;99.90;;;;;;5002128;28;19918;-90
2021/01/25 03:09:15;;;;;;;;;;;0.60;99.90;;;;;;5015062;28;19918;-89
2021/01/25 03:11:41;;;;;;;;;;;0.60;99.90;;;;;;5006196;28;19941;-90
2021/01/25 03:14:07;;;;;;;;;;;0.60;99.90;;;;;;5013880;28;19949;-89
2021/01/25 03:16:33;;;;;;;;;;;0.60;99.90;;;;;;5008167;28;20513;-88
2021/01/25 03:18:58;;;;;;;;;;;0.60;99.90;;;;;;5013197;28;19909;-88
2021/01/25 03:21:24;;;;;;;;;;;0.50;99.90;;;;;;5009098;28;19929;-90
2021/01/25 03:23:50;;;;;;;;;;;0.60;99.90;;;;;;5009010;28;19923;-89
2021/01/25 03:26:16;;;;;;;;;;;0.50;99.90;;;;;;4996820;28;19920;-90
2021/01/25 03:28:41;;;;;;;;;;;0.50;99.90;;;;;;5000872;28;19917;-89
2021/01/25 03:31:07;;;;;;;;;;;0.50;99.90;;;;;;5001393;28;19902;-88
2021/01/25 03:33:32;;;;;;;;;;;0.50;99.90;;;;;;5017839;28;19905;-89
2021/01/25 03:35:58;;;;;;;;;;;0.50;99.90;;;;;;5017639;28;19909;-88
2021/01/25 03:38:23;;;;;;;;;;;0.50;99.90;;;;;;5017367;28;19936;-88
2021/01/25 03:40:49;;;;;;;;;;;0.50;99.90;;;;;;5014028;28;19947;-88
2021/01/25 03:43:15;;;;;;;;;;;0.50;99.90;;;;;;4999690;28;19933;-90
2021/01/25 03:45:40;;;;;;;;;;;0.50;99.90;;;;;;4998308;28;19909;-89
2021/01/25 03:48:06;;;;;;;;;;;0.50;99.90;;;;;;5003273;28;19901;-88
2021/01/25 03:50:32;;;;;;;;;;;0.50;99.90;;;;;;4996749;28;19921;-89
2021/01/25 03:53:01;;;;;;;;;;;0.50;99.90;;;;;;4996632;28;19917;-89
2021/01/25 03:55:26;;;;;;;;;;;0.50;99.90;;;;;;5007581;28;20389;-89
2021/01/25 03:57:52;;;;;;;;;;;0.50;99.90;;;;;;4997719;28;19954;-89
2021/01/25 04:00:20;;;;;;;;;;;0.50;99.90;;;;;;4979293;28;19981;-88
2021/01/25 04:02:45;;;;;;;;;;;0.60;99.90;;;;;;4991446;28;19945;-89
2021/01/25 04:05:11;;;;;;;;;;;0.60;99.90;;;;;;4989644;28;19957;-89
2021/01/25 04:07:36;;;;;;;;;;;0.50;99.90;;;;;;4995877;28;19914;-89
2021/01/25 04:10:02;;;;;;;;;;;0.50;99.90;;;;;;4999230;28;20389;-89
2021/01/25 04:12:28;;;;;;;;;;;0.50;99.90;;;;;;5014548;28;19920;-90
2021/01/25 04:14:53;;;;;;;;;;;0.50;99.90;;;;;;5007908;28;19937;-89
2021/01/25 04:17:19;;;;;;;;;;;0.50;99.90;;;;;;5008575;28;19924;-90
2021/01/25 04:19:44;;;;;;;;;;;0.50;99.90;;;;;;4990296;28;19926;-90
2021/01/25 04:22:10;;;;;;;;;;;0.50;99.90;;;;;;4991869;28;19910;-89
2021/01/25 04:24:35;;;;;;;;;;;0.50;99.90;;;;;;5007970;28;19917;-89
2021/01/25 04:27:01;;;;;;;;;;;0.50;99.90;;;;;;5010846;28;19941;-88
2021/01/25 04:29:27;;;;;;;;;;;0.60;99.90;;;;;;4994931;28;19973;-90
2021/01/25 04:31:52;;;;;;;;;;;0.60;99.90;;;;;;5009086;28;19918;-89
2021/01/25 04:34:18;;;;;;;;;;;0.50;99.90;;;;;;5006784;28;19917;-89
2021/01/25 04:36:43;;;;;;;;;;;0.50;99.90;;;;;;5006274;28;19929;-89
2021/01/25 04:39:09;;;;;;;;;;;0.50;99.90;;;;;;4988522;28;19998;-89
2021/01/25 04:41:34;;;;;;;;;;;0.60;99.90;;;;;;5007458;28;19924;-89
2021/01/25 04:44:00;;;;;;;;;;;0.60;99.90;;;;;;5010587;28;19933;-89
2021/01/25 04:46:26;;;;;;;;;;;0.50;99.90;;;;;;4997132;28;19933;-89
2021/01/25 04:48:51;;;;;;;;;;;0.50;99.90;;;;;;5058094;23;21087;-88
2021/01/25 04:51:18;;;;;;;;;;;0.50;99.90;;;;;;5034920;28;19932;-89
2021/01/25 04:53:44;;;;;;;;;;;0.50;99.90;;;;;;5018679;28;19940;-89
2021/01/25 04:56:10;;;;;;;;;;;0.50;99.90;;;;;;5018051;28;19915;-90
2021/01/25 04:58:35;;;;;;;;;;;0.50;99.90;;;;;;5015680;28;19941;-89
2021/01/25 05:01:01;;;;;;;;;;;0.50;99.90;;;;;;5018919;28;19897;-90
2021/01/25 05:03:28;;;;;;;;;;;0.50;99.90;;;;;;5018434;28;19916;-90
2021/01/25 05:05:53;;;;;;;;;;;0.60;99.90;;;;;;5015944;28;19983;-89
2021/01/25 05:08:19;;;;;;;;;;;0.50;99.90;;;;;;5014690;28;19897;-89
2021/01/25 05:10:44;;;;;;;;;;;0.50;99.90;;;;;;5011824;28;19910;-89
2021/01/25 05:13:19;;;;;;;;;;;0.60;99.90;;;;;;5014657;28;19928;-88
2021/01/25 05:15:47;;;;;;;;;;;0.60;99.90;;;;;;5016375;28;19929;-89
2021/01/25 05:18:13;;;;;;;;;;;0.60;99.90;;;;;;5010078;28;19977;-89
2021/01/25 05:20:38;;;;;;;;;;;0.60;99.90;;;;;;5031345;28;19917;-89
2021/01/25 05:23:14;;;;;;;;;;;0.60;99.90;;;;;;5010831;28;19948;-89
2021/01/25 05:25:41;;;;;;;;;;;0.50;99.90;;;;;;5004379;28;19934;-88
2021/01/25 05:28:12;;;;;;;;;;;0.50;99.90;;;;;;5009337;28;20436;-88
2021/01/25 05:30:37;;;;;;;;;;;0.50;99.90;;;;;;5011200;28;19906;-89
2021/01/25 05:33:03;;;;;;;;;;;0.50;99.90;;;;;;5011040;28;20393;-89
2021/01/25 05:35:29;;;;;;;;;;;0.50;99.90;;;;;;5008972;28;19920;-88
2021/01/25 05:37:56;;;;;;;;;;;0.50;99.90;;;;;;5012732;28;19960;-88
2021/01/25 05:40:23;;;;;;;;;;;0.50;99.90;;;;;;5005362;28;19916;-88
2021/01/25 05:42:49;;;;;;;;;;;0.40;99.90;;;;;;5014051;28;19941;-88
2021/01/25 05:45:17;;;;;;;;;;;0.40;99.90;;;;;;5012109;28;19913;-89
2021/01/25 05:47:48;;;;;;;;;;;0.40;99.90;;;;;;5011024;28;19921;-88
2021/01/25 05:50:24;;;;;;;;;;;0.40;99.90;;;;;;4994285;28;19973;-87
2021/01/25 05:52:51;;;;;;;;;;;0.40;99.90;;;;;;5014361;28;19902;-88
2021/01/25 05:55:16;;;;;;;;;;;0.40;99.90;;;;;;5012773;28;19969;-88
2021/01/25 05:57:42;;;;;;;;;;;0.50;99.90;;;;;;5008359;28;19909;-88
2021/01/25 06:00:07;;;;;;;;;;;0.40;99.90;;;;;;5031387;28;19916;-87
2021/01/25 06:02:36;;;;;;;;;;;0.40;99.90;;;;;;5037875;28;19974;-88
2021/01/25 06:05:02;;;;;;;;;;;0.40;99.90;;;;;;5027503;28;19927;-88
2021/01/25 06:07:28;;;;;;;;;;;0.40;99.90;;;;;;5013940;28;19917;-89
2021/01/25 06:09:55;;;;;;;;;;;0.40;99.90;;;;;;5010610;28;19915;-89
2021/01/25 06:12:22;;;;;;;;;;;0.40;99.90;;;;;;5010836;28;19926;-89
2021/01/25 06:14:50;;;;;;;;;;;0.30;99.90;;;;;;5011502;28;19996;-89
2021/01/25 06:17:17;;;;;;;;;;;0.40;99.90;;;;;;5013461;28;19920;-90
2021/01/25 06:19:43;;;;;;;;;;;0.40;99.90;;;;;;5014053;28;20469;-88
2021/01/25 06:22:10;;;;;;;;;;;0.40;99.90;;;;;;5034399;28;19897;-89
2021/01/25 06:24:36;;;;;;;;;;;0.30;99.90;;;;;;5013124;28;19960;-88
2021/01/25 06:27:02;;;;;;;;;;;0.30;99.90;;;;;;5025554;28;19921;-88
2021/01/25 06:29:29;;;;;;;;;;;0.30;99.90;;;;;;5010451;28;19913;-87
2021/01/25 06:31:56;;;;;;;;;;;0.30;99.90;;;;;;5008995;28;19932;-88
2021/01/25 06:34:21;;;;;;;;;;;0.30;99.90;;;;;;5016417;28;19982;-88
2021/01/25 06:36:48;;;;;;;;;;;0.30;99.90;;;;;;5011952;28;19913;-89
2021/01/25 06:39:20;;;;;;;;;;;0.40;99.90;;;;;;5009955;28;19917;-89
2021/01/25 06:41:46;;;;;;;;;;;0.30;99.90;;;;;;5011408;28;19901;-88
2021/01/25 06:44:11;;;;;;;;;;;0.40;99.90;;;;;;5000501;28;20026;-89
2021/01/25 06:46:38;;;;;;;;;;;0.30;99.90;;;;;;5015323;28;19914;-88
2021/01/25 06:49:05;;;;;;;;;;;0.30;99.90;;;;;;5007911;28;19926;-89
2021/01/25 06:51:31;;;;;;;;;;;0.30;99.90;;;;;;5003865;28;19917;-88
2021/01/25 06:53:59;;;;;;;;;;;0.30;99.90;;;;;;5001024;28;20004;-88
2021/01/25 06:56:24;;;;;;;;;;;0.30;99.90;;;;;;5003978;28;19913;-88
2021/01/25 06:58:50;;;;;;;;;;;0.30;99.90;;;;;;5007568;28;19941;-88
2021/01/25 07:01:20;;;;;;;;;;;0.30;99.90;;;;;;5021646;28;19980;-89
2021/01/25 07:03:49;;;;;;;;;;;0.40;99.90;;;;;;4995915;28;20042;-90
2021/01/25 07:06:15;;;;;;;;;;;0.30;99.90;;;;;;5000685;28;19964;-88
2021/01/25 07:08:54;;;;;;;;;;;0.30;99.90;;;;;;4994383;28;19913;-89
2021/01/25 07:11:21;;;;;;;;;;;0.40;99.90;;;;;;5019454;28;20465;-89
2021/01/25 07:13:47;;;;;;;;;;;0.40;99.90;;;;;;4994487;28;19921;-89
2021/01/25 07:16:13;;;;;;;;;;;0.30;99.90;;;;;;5021444;28;19921;-89
2021/01/25 07:18:40;;;;;;;;;;;0.30;99.90;;;;;;5008127;28;19921;-88
2021/01/25 07:21:06;;;;;;;;;;;0.30;99.90;;;;;;4997783;28;19957;-89
2021/01/25 07:23:33;;;;;;;;;;;0.40;99.90;;;;;;4998639;28;19925;-91
2021/01/25 07:25:59;;;;;;;;;;;0.30;99.90;;;;;;4998232;28;19964;-89
2021/01/25 07:28:26;;;;;;;;;;;0.40;99.90;;;;;;5023076;28;19914;-89
2021/01/25 07:30:51;;;;;;;;;;;0.30;99.90;;;;;;5002068;28;19961;-89
2021/01/25 07:33:17;;;;;;;;;;;0.40;99.90;;;;;;5013829;28;19908;-89
2021/01/25 07:35:43;;;;;;;;;;;0.40;99.90;;;;;;5020596;28;19913;-88
2021/01/25 07:38:09;;;;;;;;;;;0.30;99.90;;;;;;5002081;28;20358;-89
2021/01/25 07:40:35;;;;;;;;;;;0.30;99.90;;;;;;4999889;28;19921;-88
2021/01/25 07:43:01;;;;;;;;;;;0.30;99.90;;;;;;5002080;28;20002;-88
2021/01/25 07:45:27;;;;;;;;;;;0.40;99.90;;;;;;4999656;28;19924;-88
2021/01/25 07:47:52;;;;;;;;;;;0.30;99.90;;;;;;4998702;28;19921;-89
2021/01/25 07:50:18;;;;;;;;;;;0.40;99.90;;;;;;4999314;28;19925;-87
2021/01/25 07:52:43;;;;;;;;;;;0.40;99.90;;;;;;5002250;28;19922;-87
2021/01/25 07:55:13;;;;;;;;;;;0.40;99.90;;;;;;5000533;28;19914;-89
2021/01/25 07:57:38;;;;;;;;;;;0.40;99.90;;;;;;5000283;28;19929;-89
2021/01/25 08:00:16;;;;;;;;;;;0.40;99.90;;;;;;5000835;28;19914;-89
2021/01/25 08:02:42;;;;;;;;;;;0.50;99.90;;;;;;4998695;28;19997;-89
2021/01/25 08:05:11;;;;;;;;;;;0.40;99.90;;;;;;5005350;28;19921;-89
2021/01/25 08:07:36;;;;;;;;;;;0.50;99.90;;;;;;4980278;28;20369;-88
2021/01/25 08:10:02;;;;;;;;;;;0.40;99.90;;;;;;4994981;28;19918;-87
2021/01/25 08:12:28;;;;;;;;;;;0.50;99.90;;;;;;5014793;28;20359;-86
2021/01/25 08:15:00;;;;;;;;;;;0.60;99.90;;;;;;5017693;28;19916;-87
2021/01/25 08:17:34;;;;;;;;;;;0.60;99.90;;;;;;5027662;28;19917;-88
2021/01/25 08:20:08;;;;;;;;;;;0.60;99.90;;;;;;4993359;28;19926;-87
2021/01/25 08:22:43;;;;;;;;;;;0.70;99.90;;;;;;4984867;28;19914;-86
2021/01/25 08:25:13;;;;;;;;;;;0.70;99.90;;;;;;4988682;28;20307;-87
2021/01/25 08:27:39;;;;;;;;;;;0.70;99.90;;;;;;4991125;28;19955;-87
2021/01/25 08:30:07;;;;;;;;;;;0.70;99.90;;;;;;4992036;28;20306;-87
2021/01/25 08:32:42;;;;;;;;;;;0.70;99.90;;;;;;4996132;28;19925;-88
2021/01/25 08:35:09;;;;;;;;;;;0.70;99.90;;;;;;5009463;28;21260;-87
2021/01/25 08:37:35;;;;;;;;;;;0.70;99.90;;;;;;4992719;28;19910;-87
2021/01/25 08:40:20;;;;;;;;;;;0.70;99.90;;;;;;4997004;28;19925;-87
2021/01/25 08:42:46;;;;;;;;;;;0.70;99.90;;;;;;5010576;28;20040;-87
2021/01/25 08:45:22;;;;;;;;;;;0.80;99.90;;;;;;5007293;28;19925;-87
2021/01/25 08:47:47;;;;;;;;;;;0.90;99.90;;;;;;5012743;28;19921;-88
2021/01/25 08:50:18;;;;;;;;;;;0.90;99.90;;;;;;4995892;28;19925;-88
2021/01/25 08:52:44;;;;;;;;;;;0.90;99.90;;;;;;5014608;28;19944;-88
2021/01/25 08:55:34;;;;;;;;;;;1.00;99.90;;;;;;4995612;28;19921;-88
2021/01/25 08:57:59;;;;;;;;;;;1.10;99.90;;;;;;4997335;28;19913;-88
2021/01/25 09:00:25;;;;;;;;;;;1.20;99.90;;;;;;5014581;28;19917;-87
2021/01/25 09:02:56;;;;;;;;;;;1.30;99.90;;;;;;5007749;28;19913;-88
2021/01/25 09:05:21;;;;;;;;;;;1.30;99.90;;;;;;4991987;28;19924;-88
2021/01/25 09:07:50;;;;;;;;;;;1.50;99.90;;;;;;5006513;28;19933;-88
2021/01/25 09:10:16;;;;;;;;;;;1.50;99.90;;;;;;5007877;28;19914;-87
2021/01/25 09:12:41;;;;;;;;;;;1.60;99.90;;;;;;4988916;28;19932;-87
2021/01/25 09:15:08;;;;;;;;;;;1.70;99.90;;;;;;4994694;28;19945;-89
2021/01/25 09:17:35;;;;;;;;;;;1.80;99.90;;;;;;5020950;28;19913;-89
2021/01/25 09:20:01;;;;;;;;;;;1.70;99.90;;;;;;4999755;28;19921;-89
2021/01/25 09:22:26;;;;;;;;;;;1.80;99.90;;;;;;5020656;28;19918;-89
2021/01/25 09:24:54;;;;;;;;;;;1.80;99.90;;;;;;5031902;28;19922;-89
2021/01/25 09:27:20;;;;;;;;;;;1.80;99.90;;;;;;5009465;28;19918;-89
2021/01/25 09:29:45;;;;;;;;;;;2.00;99.90;;;;;;5006459;28;19984;-89
2021/01/25 09:32:11;;;;;;;;;;;2.00;99.90;;;;;;5011015;28;19980;-89
2021/01/25 09:34:36;;;;;;;;;;;2.10;99.90;;;;;;4996378;28;19914;-88
2021/01/25 09:37:03;;;;;;;;;;;2.20;99.90;;;;;;5008414;28;19926;-89
2021/01/25 09:39:29;;;;;;;;;;;2.40;99.90;;;;;;5011133;28;20044;-89
2021/01/25 09:41:54;;;;;;;;;;;2.40;99.90;;;;;;4996537;28;19971;-88
2021/01/25 09:44:20;;;;;;;;;;;2.60;99.90;;;;;;5005363;28;20180;-88
2021/01/25 09:46:47;;;;;;;;;;;2.60;99.90;;;;;;5023592;28;20394;-89
2021/01/25 09:49:13;;;;;;;;;;;2.70;99.90;;;;;;4993818;28;19926;-89
2021/01/25 09:51:40;;;;;;;;;;;2.80;99.90;;;;;;5010860;28;19967;-89
2021/01/25 09:54:05;;;;;;;;;;;2.90;99.90;;;;;;4996317;28;19913;-89
2021/01/25 09:56:31;;;;;;;;;;;2.90;99.90;;;;;;4999941;28;19919;-89
2021/01/25 09:58:56;;;;;;;;;;;2.90;99.90;;;;;;4979038;28;19949;-88
2021/01/25 10:01:22;;;;;;;;;;;3.00;99.90;;;;;;4998747;28;19914;-89
2021/01/25 10:03:48;;;;;;;;;;;3.10;99.90;;;;;;5004026;28;19981;-89
2021/01/25 10:06:13;;;;;;;;;;;3.20;99.90;;;;;;4995517;28;19921;-89
2021/01/25 10:08:39;;;;;;;;;;;3.30;99.90;;;;;;5007440;28;19933;-88
2021/01/25 10:11:05;;;;;;;;;;;3.70;99.90;;;;;;5010523;28;19920;-89
2021/01/25 10:13:30;;;;;;;;;;;4.40;99.90;;;;;;4992254;28;19917;-90
2021/01/25 10:15:56;;;;;;;;;;;5.40;99.90;;;;;;5009524;28;19914;-89
2021/01/25 10:18:21;;;;;;;;;;;5.80;99.90;;;;;;5008061;28;19917;-89
2021/01/25 10:20:47;;;;;;;;;;;6.30;99.90;;;;;;4995475;28;19919;-90
2021/01/25 10:23:12;;;;;;;;;;;6.50;99.90;;;;;;5009520;28;20374;-89
2021/01/25 10:25:38;;;;;;;;;;;6.60;99.90;;;;;;5011879;28;19937;-89
2021/01/25 10:28:04;;;;;;;;;;;6.70;99.90;;;;;;5006132;28;19953;-88
2021/01/25 10:30:29;;;;;;;;;;;6.60;99.90;;;;;;5004820;28;20019;-89
2021/01/25 10:32:55;;;;;;;;;;;6.50;99.90;;;;;;5006521;28;20011;-88
2021/01/25 10:35:21;;;;;;;;;;;6.80;99.90;;;;;;5011119;28;19936;-89
2021/01/25 10:37:47;;;;;;;;;;;7.30;99.90;;;;;;5009910;28;19941;-88
2021/01/25 10:40:14;;;;;;;;;;;7.80;99.90;;;;;;4993882;28;19913;-87
2021/01/25 10:42:40;;;;;;;;;;;8.20;99.90;;;;;;4995625;28;19913;-88
2021/01/25 10:45:06;;;;;;;;;;;8.50;99.90;;;;;;4998192;28;19963;-87
2021/01/25 10:47:32;;;;;;;;;;;9.00;99.90;;;;;;5015588;28;20097;-87
2021/01/25 10:49:57;;;;;;;;;;;9.00;99.90;;;;;;5017582;28;19956;-87
2021/01/25 10:52:23;;;;;;;;;;;9.30;99.90;;;;;;4995336;28;19925;-87
2021/01/25 10:54:48;;;;;;;;;;;9.70;99.90;;;;;;4994157;28;19913;-87
2021/01/25 10:57:14;;;;;;;;;;;10.30;99.90;;;;;;4992806;28;19988;-87
2021/01/25 10:59:39;;;;;;;;;;;10.30;99.90;;;;;;4994173;28;20577;-87
2021/01/25 11:02:05;;;;;;;;;;;9.60;99.90;;;;;;4997684;28;19914;-87
2021/01/25 11:04:31;;;;;;;;;;;9.20;99.90;;;;;;4994343;28;19930;-90
2021/01/25 11:06:56;;;;;;;;;;;9.30;99.90;;;;;;5002693;28;19922;-84
2021/01/25 11:09:22;;;;;;;;;;;9.00;99.90;;;;;;4980127;28;19964;-82
2021/01/25 11:11:47;;;;;;;;;;;9.10;99.90;;;;;;5008977;28;20016;-81
2021/01/25 11:14:13;;;;;;;;;;;9.00;99.90;;;;;;5005105;28;20384;-82
2021/01/25 11:16:39;;;;;;;;;;;9.40;99.90;;;;;;4987229;28;20059;-82
2021/01/25 11:19:04;;;;;;;;;;;9.90;99.90;;;;;;4988128;28;19921;-82
2021/01/25 11:21:30;;;;;;;;;;;10.30;99.90;;;;;;4977900;28;19929;-81
2021/01/25 11:23:55;;;;;;;;;;;10.00;99.90;;;;;;4982166;28;19929;-82
2021/01/25 11:26:22;;;;;;;;;;;9.40;99.90;;;;;;4982885;28;19921;-82
2021/01/25 11:28:47;;;;;;;;;;;8.70;99.90;;;;;;5005622;28;19979;-82
2021/01/25 11:31:14;;;;;;;;;;;8.20;99.90;;;;;;4986804;28;19943;-82
2021/01/25 11:33:40;;;;;;;;;;;9.00;99.90;;;;;;5004630;28;19949;-82
2021/01/25 11:36:06;;;;;;;;;;;9.30;99.90;;;;;;4981208;28;20518;-82
2021/01/25 11:38:32;;;;;;;;;;;9.60;99.90;;;;;;4999285;28;19914;-82
2021/01/25 11:40:57;;;;;;;;;;;10.00;99.90;;;;;;4983717;28;19921;-82
2021/01/25 11:43:23;;;;;;;;;;;10.20;99.90;;;;;;4986259;28;19922;-83
2021/01/25 11:45:52;;;;;;;;;;;10.90;99.90;;;;;;4985391;28;20060;-83
2021/01/25 11:48:18;;;;;;;;;;;10.80;99.90;;;;;;4981801;28;19932;-83
2021/01/25 11:50:45;;;;;;;;;;;10.90;99.90;;;;;;4982648;28;20024;-84
2021/01/25 11:53:11;;;;;;;;;;;11.10;99.90;;;;;;4981662;28;20383;-83
2021/01/25 11:55:36;;;;;;;;;;;10.20;99.90;;;;;;4987582;28;19950;-83
2021/01/25 11:58:02;;;;;;;;;;;9.70;99.90;;;;;;5005692;28;19921;-84
2021/01/25 12:00:28;;;;;;;;;;;10.00;99.90;;;;;;4984416;28;19931;-83
2021/01/25 12:02:53;;;;;;;;;;;10.10;99.90;;;;;;4985833;28;20489;-83
2021/01/25 12:05:19;;;;;;;;;;;10.10;99.90;;;;;;4989002;28;20049;-81
2021/01/25 12:07:44;;;;;;;;;;;10.10;99.90;;;;;;4983021;28;19976;-81
2021/01/25 12:10:10;;;;;;;;;;;9.80;99.90;;;;;;4984672;28;19918;-87
2021/01/25 12:12:36;;;;;;;;;;;9.30;99.90;;;;;;4992987;28;19913;-86
2021/01/25 12:15:01;;;;;;;;;;;9.10;99.90;;;;;;4996227;28;19969;-87
2021/01/25 12:17:27;;;;;;;;;;;9.20;99.90;;;;;;4976391;28;20078;-88
2021/01/25 12:19:52;;;;;;;;;;;9.20;99.90;;;;;;4988097;28;20023;-88
2021/01/25 12:22:18;;;;;;;;;;;9.20;99.90;;;;;;4989460;28;19914;-87
2021/01/25 12:24:43;;;;;;;;;;;9.30;99.90;;;;;;5003142;28;20297;-88
2021/01/25 12:27:09;;;;;;;;;;;9.60;99.90;;;;;;4989989;28;19914;-87
2021/01/25 12:29:34;;;;;;;;;;;9.60;99.90;;;;;;4992081;28;19921;-88
2021/01/25 12:32:00;;;;;;;;;;;9.00;99.90;;;;;;4990548;28;19928;-88
2021/01/25 12:34:27;;;;;;;;;;;8.50;99.90;;;;;;4987399;28;19914;-87
2021/01/25 12:36:53;;;;;;;;;;;7.90;99.90;;;;;;4990475;28;19913;-86
2021/01/25 12:39:19;;;;;;;;;;;7.80;99.90;;;;;;5006844;28;19905;-88
2021/01/25 12:41:45;;;;;;;;;;;7.80;99.90;;;;;;5003406;28;19940;-87
2021/01/25 12:44:10;;;;;;;;;;;7.80;99.90;;;;;;5006557;28;21413;-87
2021/01/25 12:46:36;;;;;;;;;;;7.70;99.90;;;;;;4991298;28;19913;-87
2021/01/25 12:49:02;;;;;;;;;;;7.80;99.90;;;;;;4971841;28;19933;-87
2021/01/25 12:51:28;;;;;;;;;;;7.30;99.90;;;;;;4988033;28;19921;-86
2021/01/25 12:53:55;;;;;;;;;;;7.40;99.90;;;;;;5025133;28;20269;-86
2021/01/25 12:56:20;;;;;;;;;;;7.40;99.90;;;;;;5008592;28;19921;-87
2021/01/25 12:58:46;;;;;;;;;;;7.50;99.90;;;;;;5007647;28;19932;-87
2021/01/25 13:01:11;;;;;;;;;;;7.30;99.90;;;;;;5026887;28;19921;-87
2021/01/25 13:03:37;;;;;;;;;;;7.30;99.90;;;;;;4999042;28;19953;-87
2021/01/25 13:06:02;;;;;;;;;;;7.10;99.90;;;;;;5003196;28;19913;-87
2021/01/25 13:08:28;;;;;;;;;;;6.90;99.90;;;;;;5027655;28;20335;-90
2021/01/25 13:10:54;;;;;;;;;;;6.70;99.90;;;;;;5015548;28;19922;-88
2021/01/25 13:13:19;;;;;;;;;;;6.70;99.90;;;;;;5009956;28;19925;-87
2021/01/25 13:15:44;;;;;;;;;;;6.80;99.90;;;;;;5027908;28;19920;-89
2021/01/25 13:18:10;;;;;;;;;;;6.80;99.90;;;;;;5005859;28;20416;-88
2021/01/25 13:20:37;;;;;;;;;;;6.50;99.90;;;;;;5012737;28;20247;-88
2021/01/25 13:23:02;;;;;;;;;;;6.40;99.90;;;;;;5022983;28;19999;-88
2021/01/25 13:25:28;;;;;;;;;;;6.40;99.90;;;;;;5015385;28;19921;-90
2021/01/25 13:27:53;;;;;;;;;;;6.30;99.90;;;;;;5010261;28;19918;-89
2021/01/25 13:30:19;;;;;;;;;;;6.20;99.90;;;;;;5010752;28;19917;-86
2021/01/25 13:32:45;;;;;;;;;;;6.20;99.90;;;;;;5008142;28;19913;-88
2021/01/25 13:35:12;;;;;;;;;;;6.10;99.90;;;;;;5008464;28;19967;-89
2021/01/25 13:37:37;;;;;;;;;;;6.20;99.90;;;;;;5028261;28;19913;-87
2021/01/25 13:40:04;;;;;;;;;;;6.20;99.90;;;;;;5011556;28;19928;-82
2021/01/25 13:42:29;;;;;;;;;;;5.80;99.90;;;;;;5000490;28;19925;-82
2021/01/25 13:44:55;;;;;;;;;;;5.90;99.90;;;;;;5022268;28;19952;-85
2021/01/25 13:47:20;;;;;;;;;;;5.80;99.90;;;;;;5025352;28;19936;-86
2021/01/25 13:49:46;;;;;;;;;;;5.80;99.90;;;;;;5008832;28;19933;-86
2021/01/25 13:52:11;;;;;;;;;;;5.70;99.90;;;;;;5023365;28;19916;-86
2021/01/25 13:54:40;;;;;;;;;;;5.60;99.90;;;;;;5015999;28;20381;-87
2021/01/25 13:57:06;;;;;;;;;;;5.70;99.90;;;;;;5031271;28;19913;-87
2021/01/25 13:59:32;;;;;;;;;;;5.60;99.90;;;;;;5030338;28;19945;-88
2021/01/25 14:01:57;;;;;;;;;;;5.50;99.90;;;;;;5033520;28;19920;-88
2021/01/25 14:04:23;;;;;;;;;;;5.30;99.90;;;;;;5016189;28;20060;-87
2021/01/25 14:06:48;;;;;;;;;;;5.40;99.90;;;;;;5028769;28;19933;-87
2021/01/25 14:09:14;;;;;;;;;;;5.30;99.90;;;;;;5027758;28;19905;-88
2021/01/25 14:11:40;;;;;;;;;;;5.30;99.90;;;;;;5014254;28;19913;-87
2021/01/25 14:14:05;;;;;;;;;;;5.40;99.90;;;;;;5022345;28;19913;-87
2021/01/25 14:16:31;;;;;;;;;;;5.40;99.90;;;;;;5012200;28;19917;-87
2021/01/25 14:18:56;;;;;;;;;;;5.30;99.90;;;;;;5011805;28;19921;-87
2021/01/25 14:21:22;;;;;;;;;;;5.30;99.90;;;;;;5013688;28;19921;-87
2021/01/25 14:23:47;;;;;;;;;;;5.30;99.90;;;;;;5013641;28;19929;-87